Archival Weather

Abadan

Abadan, Iran (OIAA)

Report from: Thursday, September 21, 2023 5:00 AM UTC
Current time: Sunday, February 25, 2024 9:39 PM UTC

Current weather – Weather history – Daily summaries
Weather forecast

Temperature30.0°C (86.0°F)
Heat index28.8°C (83.8°F)
Dew point10.0°C (50.0°F)
Winds 8 kts (4.1 m/s, 9.2 mph) North-Northwest (330°)
Visibility4.3 mi. (7 km)
Altimeter29.71 in.Hg (1006 mB)
Relative humidity29 %
Density altitude2,138 ft. (652 m)
Flight conditions Marginal Visual Meteorological Conditions
Raw dataOIAA 210500Z 33008KT 7000 NSC 30/10 Q1006
An error has occurred. This application may no longer respond until reloaded. Reload 🗙